Private Pilot Quiz

In this weeks video we’re going to test your knowledge with a Private Pilot Quiz! The questions will start off easy and gradually get more and more difficult. Check out the video for a full explanation.



Which Aircraft Has The Right of Way?




Which Best Describes Density Altitude?




How Long Are TAFs Usually Valid For?




What Should You Squawk If You Lose Radio Communications?




Which Is NOT a Type of Class E Airspace?




Define The Following METAR: KGNV 101439Z 15010G17KT 10SM OVC011 23/21 A2979




Which is NOT a Characteristic of an Aft CG?




What is VOR an Acronym For?




When Do You NOT Need a Mode C Transponder




What is Calibrated Airspeed (CAS)?






Share This

Share this post with your friends!